Time;durP1;ratioP1;P1;durP2;ratioP2;P2;SDS_P1;SDS_P2;PMS_P1;PMS_P2;Temp;Humidity;BMP_temperature;BMP_pressure;BME280_temperature;BME280_humidity;BME280_pressure;Samples;Min_cycle;Max_cycle;Signal;HPM_P1;HPM_P2
2023/12/23 00:00:03;;;;;;;1.00;0.90;;;5.10;99.90;;;;;;5096262;28;20452;-77
2023/12/23 00:02:28;;;;;;;1.10;1.00;;;5.10;99.90;;;;;;5096421;28;20044;-74
2023/12/23 00:04:54;;;;;;;1.10;1.00;;;5.10;99.90;;;;;;5096424;28;20040;-76
2023/12/23 00:07:20;;;;;;;1.10;1.00;;;5.10;99.90;;;;;;5096150;28;20079;-74
2023/12/23 00:09:45;;;;;;;0.88;0.88;;;5.80;99.90;;;;;;5096092;28;20456;-74
2023/12/23 00:12:11;;;;;;;1.20;1.10;;;5.10;99.90;;;;;;5096086;28;20181;-77
2023/12/23 00:14:37;;;;;;;1.00;0.98;;;5.10;99.90;;;;;;5096074;28;20047;-73
2023/12/23 00:17:02;;;;;;;0.90;0.90;;;5.00;99.90;;;;;;5095887;28;20404;-76
2023/12/23 00:19:28;;;;;;;0.90;0.90;;;5.00;99.90;;;;;;5095917;28;20044;-75
2023/12/23 00:21:57;;;;;;;2.47;1.70;;;5.00;99.90;;;;;;5095809;28;20123;-74
2023/12/23 00:24:28;;;;;;;0.90;0.90;;;5.00;99.90;;;;;;5095784;28;20048;-75
2023/12/23 00:26:57;;;;;;;1.10;1.00;;;5.00;99.90;;;;;;5096501;28;20412;-75
2023/12/23 00:29:26;;;;;;;1.10;1.00;;;5.00;99.90;;;;;;5095769;28;20040;-75
2023/12/23 00:31:52;;;;;;;0.95;0.95;;;5.00;99.90;;;;;;5095424;28;20040;-75
2023/12/23 00:34:17;;;;;;;1.00;1.00;;;5.00;99.90;;;;;;5128737;27;20044;-74
2023/12/23 00:36:43;;;;;;;1.10;1.00;;;6.20;99.90;;;;;;5095800;28;20070;-75
2023/12/23 00:39:09;;;;;;;1.10;1.00;;;5.00;99.90;;;;;;5095467;28;20464;-74
2023/12/23 00:41:35;;;;;;;0.90;0.90;;;5.00;99.90;;;;;;5095427;28;20515;-75
2023/12/23 00:44:01;;;;;;;1.55;1.45;;;5.00;99.90;;;;;;5095304;28;20043;-73
2023/12/23 00:46:28;;;;;;;1.10;1.00;;;5.00;99.90;;;;;;5094454;28;20123;-76
2023/12/23 00:48:54;;;;;;;;;;;5.10;99.90;;;;;;5095787;28;20480;-75
2023/12/23 00:51:20;;;;;;;0.85;0.85;;;5.10;99.90;;;;;;5095239;28;19930;-74
2023/12/23 00:53:45;;;;;;;0.98;0.98;;;5.20;99.90;;;;;;5095276;28;20043;-74
2023/12/23 00:56:11;;;;;;;1.05;1.00;;;5.20;99.90;;;;;;5095467;28;20468;-73
2023/12/23 00:58:36;;;;;;;1.10;1.00;;;5.20;99.90;;;;;;5095574;28;20035;-76
2023/12/23 01:01:02;;;;;;;1.10;1.00;;;5.20;99.90;;;;;;5095270;28;20056;-75
2023/12/23 01:03:28;;;;;;;1.10;1.00;;;5.30;99.90;;;;;;5095118;28;20052;-75
2023/12/23 01:05:54;;;;;;;1.10;1.00;;;5.30;99.90;;;;;;5094970;28;20032;-75
2023/12/23 01:08:20;;;;;;;0.90;0.90;;;5.30;99.90;;;;;;5094805;28;20371;-75
2023/12/23 01:10:45;;;;;;;1.02;0.93;;;6.30;99.90;;;;;;5094930;28;20173;-74
2023/12/23 01:13:11;;;;;;;1.67;1.58;;;5.30;99.90;;;;;;5095487;28;20083;-74
2023/12/23 01:15:36;;;;;;;0.90;0.90;;;5.40;99.90;;;;;;5094965;28;20043;-75
2023/12/23 01:18:02;;;;;;;0.90;0.90;;;5.40;99.90;;;;;;5094694;28;20059;-76
2023/12/23 01:20:28;;;;;;;0.90;0.90;;;5.40;99.90;;;;;;5094866;28;20079;-74
2023/12/23 01:22:53;;;;;;;0.90;0.90;;;6.40;99.90;;;;;;5094654;28;20087;-74
2023/12/23 01:25:22;;;;;;;1.08;1.00;;;6.50;99.90;;;;;;5093505;28;20086;-76
2023/12/23 01:27:47;;;;;;;1.10;1.00;;;5.60;99.90;;;;;;5094517;28;20036;-77
2023/12/23 01:30:13;;;;;;;0.90;0.90;;;5.50;99.90;;;;;;5094465;28;20048;-74
2023/12/23 01:32:39;;;;;;;1.10;1.00;;;5.50;99.90;;;;;;5094521;28;20079;-76
2023/12/23 01:35:05;;;;;;;3.00;2.75;;;5.50;99.90;;;;;;5094471;28;20064;-73
2023/12/23 01:37:30;;;;;;;0.90;0.90;;;5.50;99.90;;;;;;5094401;28;20529;-74
2023/12/23 01:39:56;;;;;;;1.10;1.00;;;6.20;99.90;;;;;;5094345;28;20383;-76
2023/12/23 01:42:21;;;;;;;1.05;1.00;;;5.50;99.90;;;;;;5094689;28;20044;-75
2023/12/23 01:44:47;;;;;;;0.90;0.90;;;5.50;99.90;;;;;;5094699;28;20032;-75
2023/12/23 01:47:13;;;;;;;0.90;0.90;;;5.60;99.90;;;;;;5094267;28;20036;-76
2023/12/23 01:49:40;;;;;;;0.90;0.90;;;5.60;99.90;;;;;;5094265;28;20116;-73
2023/12/23 01:52:06;;;;;;;0.90;0.90;;;5.60;99.90;;;;;;5094226;28;20054;-73
2023/12/23 01:54:32;;;;;;;0.88;0.88;;;5.60;99.90;;;;;;5094015;28;20508;-76
2023/12/23 01:56:58;;;;;;;0.90;0.90;;;5.60;99.90;;;;;;5094029;28;20039;-72
2023/12/23 01:59:24;;;;;;;1.10;1.00;;;5.70;99.90;;;;;;5093216;28;20040;-75
2023/12/23 02:01:51;;;;;;;1.00;1.00;;;5.60;99.90;;;;;;5094000;28;20122;-74
2023/12/23 02:04:18;;;;;;;0.98;0.95;;;5.70;99.90;;;;;;5094129;28;20044;-74
2023/12/23 02:06:43;;;;;;;1.60;1.50;;;5.70;99.90;;;;;;5093407;28;20044;-74
2023/12/23 02:09:10;;;;;;;1.55;1.45;;;6.20;99.90;;;;;;5093863;28;20449;-76
2023/12/23 02:11:59;;;;;;;0.93;0.93;;;5.70;99.90;;;;;;5093959;28;20090;-75
2023/12/23 02:14:41;;;;;;;0.90;0.90;;;6.10;99.90;;;;;;5094193;28;20117;-74
2023/12/23 02:17:08;;;;;;;0.90;0.90;;;5.80;99.90;;;;;;5093834;28;20036;-75
2023/12/23 02:19:34;;;;;;;0.90;0.90;;;5.70;99.90;;;;;;5093909;28;20047;-74
2023/12/23 02:21:59;;;;;;;0.90;0.90;;;5.70;99.90;;;;;;5093771;28;20466;-75
2023/12/23 02:24:26;;;;;;;1.10;1.00;;;5.70;99.90;;;;;;5093744;28;20040;-76
2023/12/23 02:27:03;;;;;;;0.90;0.90;;;5.70;99.90;;;;;;5093731;28;20074;-74
2023/12/23 02:29:29;;;;;;;1.05;0.95;;;6.40;99.90;;;;;;5093751;28;20055;-72
2023/12/23 02:31:56;;;;;;;0.90;0.90;;;5.70;99.90;;;;;;5093528;28;20063;-74
2023/12/23 02:34:22;;;;;;;0.90;0.90;;;5.70;99.90;;;;;;5094317;28;20089;-74
2023/12/23 02:36:47;;;;;;;1.10;1.00;;;5.80;99.90;;;;;;5093932;28;20036;-76
2023/12/23 02:39:13;;;;;;;1.40;1.30;;;5.70;99.90;;;;;;5093487;28;20348;-74
2023/12/23 02:41:39;;;;;;;1.10;1.00;;;5.70;99.90;;;;;;5093470;28;20094;-75
2023/12/23 02:44:04;;;;;;;0.90;0.90;;;5.70;99.90;;;;;;5093680;28;20088;-74
2023/12/23 02:46:30;;;;;;;0.90;0.90;;;5.70;99.90;;;;;;5093442;28;20425;-74
2023/12/23 02:48:55;;;;;;;0.90;0.90;;;5.90;99.90;;;;;;5093482;28;20062;-75
2023/12/23 02:51:21;;;;;;;0.90;0.90;;;5.70;99.90;;;;;;5093878;28;20040;-74
2023/12/23 02:53:46;;;;;;;0.80;0.80;;;5.70;99.90;;;;;;5093332;28;20036;-73
2023/12/23 02:56:12;;;;;;;0.90;0.90;;;5.70;99.90;;;;;;5093226;28;20042;-75
2023/12/23 02:58:37;;;;;;;0.90;0.90;;;6.40;99.90;;;;;;5093444;28;20050;-76
2023/12/23 03:01:07;;;;;;;1.00;1.00;;;5.70;99.90;;;;;;5093402;28;20087;-76
2023/12/23 03:03:33;;;;;;;0.90;0.90;;;5.60;99.90;;;;;;5093205;28;20487;-75
2023/12/23 03:06:02;;;;;;;0.90;0.90;;;5.70;99.90;;;;;;5093080;28;20534;-74
2023/12/23 03:08:27;;;;;;;0.90;0.90;;;5.60;99.90;;;;;;5093346;28;20040;-75
2023/12/23 03:10:53;;;;;;;0.80;0.80;;;5.60;99.90;;;;;;5093460;28;20032;-73
2023/12/23 03:13:18;;;;;;;0.90;0.90;;;5.60;99.90;;;;;;5093451;28;20468;-72
2023/12/23 03:15:44;;;;;;;0.90;0.90;;;5.60;99.90;;;;;;5093174;28;20047;-75
2023/12/23 03:18:09;;;;;;;0.90;0.90;;;6.30;99.90;;;;;;5092989;28;20082;-76
2023/12/23 03:20:36;;;;;;;0.90;0.90;;;5.60;99.90;;;;;;5097271;28;20123;-74
2023/12/23 03:23:04;;;;;;;0.95;0.95;;;5.60;99.90;;;;;;5097031;28;20134;-74
2023/12/23 03:25:30;;;;;;;0.80;0.80;;;5.70;99.90;;;;;;5096959;28;20084;-75
2023/12/23 03:27:55;;;;;;;0.90;0.90;;;5.60;99.90;;;;;;5096829;28;20079;-73
2023/12/23 03:30:21;;;;;;;0.90;0.90;;;5.50;99.90;;;;;;5096861;28;20403;-76
2023/12/23 03:32:47;;;;;;;1.00;1.00;;;5.50;99.90;;;;;;5096868;28;20051;-75
2023/12/23 03:35:12;;;;;;;1.10;1.00;;;5.50;99.90;;;;;;5096757;28;20040;-73
2023/12/23 03:37:38;;;;;;;0.90;0.90;;;5.50;99.90;;;;;;5096083;28;20040;-74
2023/12/23 03:40:04;;;;;;;0.98;0.90;;;5.70;99.90;;;;;;5096655;28;20051;-74
2023/12/23 03:42:30;;;;;;;0.80;0.80;;;5.50;99.90;;;;;;5096715;28;20446;-76
2023/12/23 03:44:55;;;;;;;1.00;0.90;;;5.40;99.90;;;;;;5097101;28;20127;-75
2023/12/23 03:47:21;;;;;;;0.93;0.90;;;5.40;99.90;;;;;;5096418;28;20104;-75
2023/12/23 03:49:47;;;;;;;1.02;0.98;;;5.40;99.90;;;;;;5096585;28;20043;-75
2023/12/23 03:52:12;;;;;;;0.90;0.90;;;5.40;99.90;;;;;;5096518;28;20036;-75
2023/12/23 03:54:38;;;;;;;1.00;0.98;;;5.40;99.90;;;;;;5096765;28;20044;-74
2023/12/23 03:57:04;;;;;;;1.10;1.00;;;5.40;99.90;;;;;;5096647;28;20043;-74
2023/12/23 03:59:29;;;;;;;0.90;0.90;;;5.40;99.90;;;;;;5096046;28;20483;-74
2023/12/23 04:01:55;;;;;;;0.98;0.95;;;5.40;99.90;;;;;;5095350;28;20048;-74
2023/12/23 04:04:20;;;;;;;0.98;0.98;;;5.40;99.90;;;;;;5097002;28;20506;-75
2023/12/23 04:06:46;;;;;;;0.90;0.90;;;5.40;99.90;;;;;;5096078;28;20418;-72
2023/12/23 04:09:12;;;;;;;1.10;1.00;;;5.40;99.90;;;;;;5096200;28;20028;-73
2023/12/23 04:11:37;;;;;;;1.02;1.00;;;5.40;99.90;;;;;;5096384;28;20089;-75
2023/12/23 04:14:03;;;;;;;0.90;0.90;;;6.40;99.90;;;;;;5096218;28;20094;-74
2023/12/23 04:16:29;;;;;;;0.90;0.90;;;5.40;99.90;;;;;;5096093;28;20051;-76
2023/12/23 04:18:54;;;;;;;1.13;1.02;;;5.40;99.90;;;;;;5094692;28;20488;-74
2023/12/23 04:21:20;;;;;;;1.10;1.00;;;5.40;99.90;;;;;;5096112;28;20044;-74
2023/12/23 04:23:46;;;;;;;0.90;0.90;;;5.40;99.90;;;;;;5095934;28;20464;-74
2023/12/23 04:26:14;;;;;;;0.90;0.90;;;5.40;99.90;;;;;;5095773;28;20483;-76
2023/12/23 04:28:39;;;;;;;0.90;0.90;;;5.50;99.90;;;;;;5095710;28;20048;-74
2023/12/23 04:31:05;;;;;;;0.90;0.90;;;5.50;99.90;;;;;;5095357;28;20057;-74
2023/12/23 04:33:31;;;;;;;0.90;0.90;;;5.50;99.90;;;;;;5095777;28;20132;-75
2023/12/23 04:35:57;;;;;;;0.88;0.88;;;5.50;99.90;;;;;;5095773;28;20360;-73
2023/12/23 04:38:23;;;;;;;1.00;1.00;;;5.50;99.90;;;;;;5095650;28;20040;-73
2023/12/23 04:40:49;;;;;;;0.90;0.90;;;5.50;99.90;;;;;;5095551;28;20379;-74
2023/12/23 04:43:14;;;;;;;0.90;0.90;;;5.50;99.90;;;;;;5095739;28;20472;-76
2023/12/23 04:45:40;;;;;;;1.10;1.00;;;5.50;99.90;;;;;;5095720;28;20055;-76
2023/12/23 04:48:06;;;;;;;0.88;0.88;;;5.50;99.90;;;;;;5095401;28;20042;-74
2023/12/23 04:50:31;;;;;;;1.05;0.98;;;5.50;99.90;;;;;;5095205;28;20452;-74
2023/12/23 04:52:57;;;;;;;1.05;1.00;;;5.50;99.90;;;;;;5095302;28;20085;-75
2023/12/23 04:55:22;;;;;;;0.90;0.90;;;5.60;99.90;;;;;;5095526;28;20040;-75
2023/12/23 04:57:48;;;;;;;1.00;1.00;;;5.60;99.90;;;;;;5095469;28;20036;-74
2023/12/23 05:00:14;;;;;;;0.90;0.90;;;5.60;99.90;;;;;;5095288;28;20387;-77
2023/12/23 05:02:40;;;;;;;1.10;1.00;;;5.50;99.90;;;;;;5095173;28;20109;-75
2023/12/23 05:05:06;;;;;;;0.90;0.90;;;5.50;99.90;;;;;;5095165;28;20044;-73
2023/12/23 05:07:33;;;;;;;0.80;0.80;;;5.50;99.90;;;;;;5095607;28;20032;-74
2023/12/23 05:09:58;;;;;;;1.20;1.10;;;5.50;99.90;;;;;;5095241;28;20089;-75
2023/12/23 05:12:24;;;;;;;0.90;0.90;;;5.50;99.90;;;;;;5094969;28;20472;-75
2023/12/23 05:14:51;;;;;;;0.90;0.90;;;5.60;99.90;;;;;;5095016;28;20040;-73
2023/12/23 05:17:16;;;;;;;0.90;0.90;;;5.60;99.90;;;;;;5094527;28;20032;-76
2023/12/23 05:19:42;;;;;;;1.10;1.00;;;5.60;99.90;;;;;;5095041;28;20424;-74
2023/12/23 05:22:08;;;;;;;1.00;1.00;;;5.80;99.90;;;;;;5095300;28;20072;-74
2023/12/23 05:24:37;;;;;;;1.02;0.95;;;5.60;99.90;;;;;;5094822;28;20471;-76
2023/12/23 05:27:04;;;;;;;1.10;1.00;;;5.60;99.90;;;;;;5094867;28;20050;-77
2023/12/23 05:29:30;;;;;;;;;;;5.60;99.90;;;;;;5095094;28;20039;-73
2023/12/23 05:31:55;;;;;;;0.88;0.88;;;5.60;99.90;;;;;;5093360;28;19931;-74
2023/12/23 05:34:21;;;;;;;0.90;0.90;;;5.60;99.90;;;;;;5095112;28;20384;-73
2023/12/23 05:36:47;;;;;;;1.08;1.00;;;5.60;99.90;;;;;;5094982;28;20043;-72
2023/12/23 05:39:12;;;;;;;0.90;0.90;;;5.50;99.90;;;;;;5094631;28;20047;-75
2023/12/23 05:41:38;;;;;;;0.90;0.90;;;5.50;99.90;;;;;;5093678;28;20071;-73
2023/12/23 05:44:04;;;;;;;0.98;0.98;;;5.50;99.90;;;;;;5094605;28;20122;-75
2023/12/23 05:46:29;;;;;;;0.90;0.90;;;5.50;99.90;;;;;;5094297;28;20406;-73
2023/12/23 05:48:55;;;;;;;1.20;1.10;;;5.50;99.90;;;;;;5094273;28;20035;-72
2023/12/23 05:51:20;;;;;;;0.90;0.90;;;5.60;99.90;;;;;;5094368;28;20511;-74
2023/12/23 05:53:46;;;;;;;1.10;1.00;;;6.50;99.90;;;;;;5094650;28;20090;-77
2023/12/23 05:56:11;;;;;;;0.85;0.85;;;5.60;99.90;;;;;;5094304;28;20123;-75
2023/12/23 05:58:37;;;;;;;0.90;0.90;;;5.60;99.90;;;;;;5094179;28;20043;-76
2023/12/23 06:01:04;;;;;;;0.90;0.90;;;5.60;99.90;;;;;;5094100;28;20043;-75
2023/12/23 06:03:30;;;;;;;0.80;0.80;;;5.60;99.90;;;;;;5094136;28;20392;-74
2023/12/23 06:05:55;;;;;;;0.85;0.85;;;5.60;99.90;;;;;;5094487;28;20036;-75
2023/12/23 06:08:21;;;;;;;0.90;0.90;;;5.60;99.90;;;;;;5093999;28;20173;-77
2023/12/23 06:10:47;;;;;;;0.80;0.80;;;5.60;99.90;;;;;;5094135;28;20040;-75
2023/12/23 06:13:13;;;;;;;0.90;0.90;;;5.70;99.90;;;;;;5093978;28;20093;-77
2023/12/23 06:15:38;;;;;;;0.90;0.90;;;5.70;99.90;;;;;;5094011;28;20035;-76
2023/12/23 06:18:04;;;;;;;0.90;0.90;;;5.80;99.90;;;;;;5093598;28;20074;-76
2023/12/23 06:20:30;;;;;;;0.80;0.80;;;5.90;99.90;;;;;;5093734;28;20067;-77
2023/12/23 06:22:56;;;;;;;0.90;0.90;;;6.00;99.90;;;;;;5093937;28;20434;-71
2023/12/23 06:25:21;;;;;;;0.80;0.80;;;6.20;99.90;;;;;;5093849;28;20036;-76
2023/12/23 06:27:47;;;;;;;0.80;0.80;;;6.60;99.90;;;;;;5093825;28;20036;-73
2023/12/23 06:30:13;;;;;;;0.80;0.80;;;6.70;99.90;;;;;;5093850;28;20035;-74
2023/12/23 06:32:38;;;;;;;0.80;0.80;;;6.90;99.90;;;;;;5093633;28;20051;-83
2023/12/23 06:35:04;;;;;;;0.95;0.95;;;7.20;99.90;;;;;;5092581;28;20123;-77
2023/12/23 06:37:30;;;;;;;0.80;0.80;;;7.20;99.90;;;;;;5094290;28;20071;-78
2023/12/23 06:39:55;;;;;;;0.80;0.80;;;7.40;99.90;;;;;;5093997;28;20484;-75
2023/12/23 06:42:21;;;;;;;0.80;0.80;;;7.40;99.90;;;;;;5093895;28;20040;-77
2023/12/23 06:44:47;;;;;;;0.80;0.80;;;7.50;99.90;;;;;;5093741;28;20483;-79
2023/12/23 06:47:12;;;;;;;1.27;1.23;;;7.60;99.90;;;;;;5094315;28;20097;-75
2023/12/23 06:49:38;;;;;;;0.80;0.80;;;7.70;99.90;;;;;;5093697;28;20047;-76
2023/12/23 06:52:04;;;;;;;0.80;0.80;;;8.00;99.90;;;;;;5093676;28;20085;-76
2023/12/23 06:54:29;;;;;;;0.80;0.80;;;7.60;99.90;;;;;;5097537;28;20075;-75
2023/12/23 06:56:55;;;;;;;0.80;0.80;;;7.60;99.90;;;;;;5097727;28;20035;-76
2023/12/23 06:59:20;;;;;;;0.80;0.80;;;7.70;99.90;;;;;;5097557;28;20341;-75
2023/12/23 07:01:46;;;;;;;0.80;0.80;;;7.70;99.90;;;;;;5096283;28;20040;-76
2023/12/23 07:04:11;;;;;;;0.80;0.80;;;7.70;99.90;;;;;;5097902;28;20036;-75
2023/12/23 07:06:37;;;;;;;0.80;0.80;;;7.80;99.90;;;;;;5097542;28;20044;-75
2023/12/23 07:09:03;;;;;;;0.90;0.90;;;7.90;99.90;;;;;;5097434;28;20036;-74
2023/12/23 07:11:29;;;;;;;0.88;0.88;;;8.50;99.90;;;;;;5096468;28;20044;-75
2023/12/23 07:13:54;;;;;;;0.77;0.77;;;8.20;99.90;;;;;;5097370;28;20035;-75
2023/12/23 07:16:20;;;;;;;0.80;0.80;;;8.00;99.90;;;;;;5096123;28;20525;-78
2023/12/23 07:18:46;;;;;;;0.80;0.80;;;7.90;99.90;;;;;;5097568;28;20048;-73
2023/12/23 07:21:12;;;;;;;0.93;0.93;;;8.50;99.90;;;;;;5097201;28;20039;-73
2023/12/23 07:23:38;;;;;;;4.43;0.90;;;8.10;99.90;;;;;;5097219;28;20050;-75
2023/12/23 07:26:04;;;;;;;0.80;0.80;;;7.80;99.90;;;;;;5097193;28;20047;-74
2023/12/23 07:28:30;;;;;;;0.90;0.90;;;7.70;99.90;;;;;;5097555;28;20040;-76
2023/12/23 07:30:55;;;;;;;1.00;1.00;;;8.00;99.90;;;;;;5097005;28;20032;-80
2023/12/23 07:33:22;;;;;;;0.90;0.90;;;7.80;99.90;;;;;;5096959;28;20071;-77
2023/12/23 07:35:47;;;;;;;0.85;0.85;;;7.30;99.90;;;;;;5096902;28;20119;-76
2023/12/23 07:38:13;;;;;;;0.80;0.80;;;7.20;99.90;;;;;;5096864;28;20420;-80
2023/12/23 07:40:40;;;;;;;0.90;0.90;;;8.00;99.90;;;;;;5096763;28;20047;-78
2023/12/23 07:43:06;;;;;;;0.88;0.88;;;7.00;99.90;;;;;;5096985;28;20047;-77
2023/12/23 07:45:32;;;;;;;0.80;0.80;;;7.80;99.90;;;;;;5096785;28;20036;-78
2023/12/23 07:47:57;;;;;;;0.90;0.90;;;6.90;99.90;;;;;;5096664;28;20398;-77
2023/12/23 07:50:23;;;;;;;0.80;0.80;;;6.80;99.90;;;;;;5096655;28;20066;-76
2023/12/23 07:52:49;;;;;;;0.90;0.90;;;6.80;99.90;;;;;;5096662;28;20468;-79
2023/12/23 07:55:15;;;;;;;0.90;0.90;;;6.80;99.90;;;;;;5096787;28;20090;-78
2023/12/23 07:57:42;;;;;;;0.90;0.90;;;7.40;99.90;;;;;;5096545;28;20410;-74
2023/12/23 08:00:09;;;;;;;0.90;0.90;;;6.60;99.90;;;;;;5096410;28;20085;-75
2023/12/23 08:02:35;;;;;;;0.85;0.85;;;6.60;99.90;;;;;;5096398;28;20079;-73
2023/12/23 08:05:02;;;;;;;0.80;0.80;;;6.50;99.90;;;;;;5094269;28;20032;-78
2023/12/23 08:07:28;;;;;;;0.90;0.90;;;6.40;99.90;;;;;;5096351;28;20115;-74
2023/12/23 08:09:53;;;;;;;0.90;0.90;;;6.20;99.90;;;;;;5096319;28;20127;-75
2023/12/23 08:12:22;;;;;;;0.90;0.90;;;6.20;99.90;;;;;;5096222;28;20046;-73
2023/12/23 08:14:47;;;;;;;0.88;0.88;;;6.00;99.90;;;;;;5096141;28;20043;-73
2023/12/23 08:17:13;;;;;;;0.90;0.90;;;5.90;99.90;;;;;;5095899;28;20567;-72
2023/12/23 08:19:39;;;;;;;1.08;1.00;;;5.90;99.90;;;;;;5096003;28;20055;-78
2023/12/23 08:22:05;;;;;;;0.80;0.80;;;5.90;99.90;;;;;;5095980;28;20032;-75
2023/12/23 08:24:31;;;;;;;0.90;0.90;;;5.80;99.90;;;;;;5095925;28;20111;-76
2023/12/23 08:26:56;;;;;;;1.05;1.00;;;5.80;99.90;;;;;;5096042;28;20549;-75
2023/12/23 08:29:24;;;;;;;0.90;0.90;;;6.30;99.90;;;;;;5095846;28;20046;-82
2023/12/23 08:31:50;;;;;;;0.82;0.82;;;5.60;99.90;;;;;;5095812;28;20051;-75
2023/12/23 08:34:17;;;;;;;0.90;0.90;;;5.60;99.90;;;;;;5095756;28;20036;-78
2023/12/23 08:36:43;;;;;;;0.90;0.90;;;5.50;99.90;;;;;;5095729;28;20036;-76
2023/12/23 08:39:08;;;;;;;0.90;0.90;;;5.50;99.90;;;;;;5095701;28;20054;-80
2023/12/23 08:41:35;;;;;;;0.80;0.80;;;5.40;99.90;;;;;;5095771;28;20119;-78
2023/12/23 08:44:02;;;;;;;1.00;1.00;;;5.40;99.90;;;;;;5095659;28;20361;-77
2023/12/23 08:46:28;;;;;;;;;;;5.30;99.90;;;;;;5096469;28;20328;-77
2023/12/23 08:48:53;;;;;;;0.90;0.90;;;5.40;99.90;;;;;;5095524;28;19916;-77
2023/12/23 08:51:19;;;;;;;0.90;0.90;;;5.30;99.90;;;;;;5077757;28;20040;-73
2023/12/23 08:53:45;;;;;;;0.90;0.90;;;5.40;99.90;;;;;;5094304;28;20472;-72
2023/12/23 08:56:10;;;;;;;0.80;0.80;;;6.20;99.90;;;;;;5095412;28;20044;-74
2023/12/23 08:58:36;;;;;;;0.85;0.85;;;5.30;99.90;;;;;;5095364;28;20047;-73
2023/12/23 09:01:01;;;;;;;0.90;0.90;;;5.30;99.90;;;;;;5095286;28;20039;-73
2023/12/23 09:03:28;;;;;;;0.80;0.80;;;5.30;99.90;;;;;;5095276;28;20515;-71
2023/12/23 09:05:56;;;;;;;0.80;0.80;;;5.30;99.90;;;;;;5095091;28;20495;-73
2023/12/23 09:08:21;;;;;;;0.90;0.90;;;5.40;99.90;;;;;;5095057;28;20170;-72
2023/12/23 09:10:47;;;;;;;0.80;0.80;;;5.90;99.90;;;;;;5095092;28;20076;-70
2023/12/23 09:13:12;;;;;;;0.80;0.80;;;5.30;99.90;;;;;;5094720;28;20089;-73
2023/12/23 09:15:38;;;;;;;0.90;0.90;;;5.30;99.90;;;;;;5094935;28;20044;-74
2023/12/23 09:18:04;;;;;;;0.90;0.90;;;5.30;99.90;;;;;;5094915;28;20056;-70
2023/12/23 09:20:29;;;;;;;0.90;0.90;;;5.40;99.90;;;;;;5094921;28;20048;-73
2023/12/23 09:22:55;;;;;;;0.90;0.90;;;5.40;99.90;;;;;;5094891;28;20072;-72
2023/12/23 09:25:20;;;;;;;0.90;0.90;;;5.40;99.90;;;;;;5095133;28;20040;-73
2023/12/23 09:27:46;;;;;;;0.90;0.90;;;5.40;99.90;;;;;;5094654;28;20111;-75
2023/12/23 09:30:12;;;;;;;0.90;0.90;;;5.90;99.90;;;;;;5094556;28;20108;-74
2023/12/23 09:32:37;;;;;;;0.85;0.85;;;5.50;99.90;;;;;;5095438;28;20479;-72
2023/12/23 09:35:03;;;;;;;0.90;0.90;;;5.50;99.90;;;;;;5094918;28;20074;-72
2023/12/23 09:37:29;;;;;;;1.10;1.00;;;5.50;99.90;;;;;;5094585;28;20436;-75
2023/12/23 09:39:58;;;;;;;0.80;0.80;;;5.60;99.90;;;;;;5094656;28;20040;-74
2023/12/23 09:42:24;;;;;;;0.90;0.90;;;5.60;99.90;;;;;;5094473;28;20079;-76
2023/12/23 09:44:50;;;;;;;0.90;0.90;;;5.60;99.90;;;;;;5094380;28;20071;-75
2023/12/23 09:47:16;;;;;;;0.93;0.93;;;5.60;99.90;;;;;;5094363;28;20043;-75
2023/12/23 09:49:42;;;;;;;0.90;0.90;;;5.70;99.90;;;;;;5094400;28;20036;-75
2023/12/23 09:52:09;;;;;;;0.90;0.90;;;5.70;99.90;;;;;;5094691;28;20063;-75
2023/12/23 09:54:38;;;;;;;0.90;0.90;;;5.70;99.90;;;;;;5094317;28;20105;-74
2023/12/23 09:57:05;;;;;;;0.90;0.90;;;5.70;99.90;;;;;;5094216;28;20086;-76
2023/12/23 09:59:31;;;;;;;0.90;0.90;;;5.70;99.90;;;;;;5094223;28;20072;-76
2023/12/23 10:01:57;;;;;;;0.90;0.90;;;5.70;99.90;;;;;;5093970;28;20468;-75
2023/12/23 10:04:22;;;;;;;0.90;0.90;;;6.20;99.90;;;;;;5094183;28;20043;-75
2023/12/23 10:06:48;;;;;;;0.80;0.80;;;5.80;99.90;;;;;;5094337;28;20419;-74
2023/12/23 10:09:14;;;;;;;0.90;0.90;;;5.80;99.90;;;;;;5093903;28;20036;-74
2023/12/23 10:11:40;;;;;;;0.90;0.90;;;5.80;99.90;;;;;;5094055;28;20097;-75
2023/12/23 10:14:05;;;;;;;0.90;0.90;;;5.80;99.90;;;;;;5093913;28;20039;-75
2023/12/23 10:16:31;;;;;;;0.80;0.80;;;5.80;99.90;;;;;;5093974;28;20040;-73
2023/12/23 10:18:56;;;;;;;0.85;0.85;;;5.80;99.90;;;;;;5093988;28;20048;-74
2023/12/23 10:21:22;;;;;;;0.90;0.90;;;5.90;99.90;;;;;;5094196;28;20035;-74
2023/12/23 10:23:48;;;;;;;0.90;0.90;;;5.90;99.90;;;;;;5093941;28;20036;-71
2023/12/23 10:26:14;;;;;;;0.90;0.90;;;5.90;99.90;;;;;;5093902;28;20380;-81
2023/12/23 10:28:43;;;;;;;0.90;0.90;;;5.90;99.90;;;;;;5092131;28;20075;-79
2023/12/23 10:31:11;;;;;;;0.85;0.85;;;6.00;99.90;;;;;;5094298;28;20177;-74
2023/12/23 10:33:44;;;;;;;0.80;0.80;;;6.00;99.90;;;;;;5092491;28;20393;-74
2023/12/23 10:36:13;;;;;;;1.15;1.10;;;6.00;99.90;;;;;;5093773;28;20044;-74
2023/12/23 10:38:46;;;;;;;0.90;0.90;;;6.00;99.90;;;;;;5093763;28;20407;-75
2023/12/23 10:41:24;;;;;;;0.80;0.80;;;6.00;99.90;;;;;;5093756;28;20051;-78
2023/12/23 10:43:52;;;;;;;0.90;0.90;;;6.10;99.90;;;;;;5093698;28;20054;-71
2023/12/23 10:46:20;;;;;;;0.80;0.80;;;6.10;99.90;;;;;;5093590;28;20129;-72
2023/12/23 10:48:47;;;;;;;0.85;0.85;;;6.10;99.90;;;;;;5093511;28;20032;-76
2023/12/23 10:51:13;;;;;;;;;;;6.70;99.90;;;;;;5093086;28;20075;-74
2023/12/23 10:53:39;;;;;;;0.90;0.90;;;6.10;99.90;;;;;;5093593;28;19920;-76
2023/12/23 10:56:07;;;;;;;0.90;0.90;;;6.20;99.90;;;;;;5093315;28;20495;-77
2023/12/23 10:58:34;;;;;;;0.80;0.80;;;6.20;99.90;;;;;;5093778;28;20036;-73
2023/12/23 11:01:00;;;;;;;0.70;0.70;;;6.30;99.90;;;;;;5101335;28;20109;-71
2023/12/23 11:03:29;;;;;;;0.80;0.80;;;6.90;99.90;;;;;;5093787;28;20036;-72
2023/12/23 11:05:56;;;;;;;0.80;0.80;;;6.50;99.90;;;;;;5093309;28;20044;-73
2023/12/23 11:08:24;;;;;;;0.80;0.80;;;7.60;99.90;;;;;;5093342;28;20127;-72
2023/12/23 11:10:51;;;;;;;0.93;0.93;;;6.80;99.90;;;;;;5093996;28;20046;-72
2023/12/23 11:13:19;;;;;;;3.15;2.55;;;7.80;99.90;;;;;;5093992;28;20036;-79
2023/12/23 11:15:46;;;;;;;1.08;1.08;;;7.20;99.90;;;;;;5093317;28;20040;-78
2023/12/23 11:18:12;;;;;;;0.88;0.88;;;7.40;99.90;;;;;;5093470;28;20048;-72
2023/12/23 11:20:49;;;;;;;0.80;0.80;;;7.50;99.90;;;;;;5093251;28;20044;-71
2023/12/23 11:23:36;;;;;;;;;;;7.60;99.90;;;;;;5094221;28;20044;-72
2023/12/23 11:26:03;;;;;;;3.50;2.80;;;7.80;99.90;;;;;;5093378;28;19916;-72
2023/12/23 11:28:31;;;;;;;0.80;0.80;;;7.90;99.90;;;;;;5093213;28;20044;-72
2023/12/23 11:31:00;;;;;;;1.80;1.20;;;7.90;99.90;;;;;;5092871;28;20044;-72
2023/12/23 11:33:29;;;;;;;0.80;0.80;;;8.00;99.90;;;;;;5092033;28;20081;-72
2023/12/23 11:35:59;;;;;;;0.80;0.80;;;8.10;99.90;;;;;;5091878;28;20129;-72
2023/12/23 11:38:50;;;;;;;0.80;0.80;;;8.30;99.90;;;;;;5092661;28;20418;-72
2023/12/23 11:41:17;;;;;;;0.80;0.80;;;8.20;99.90;;;;;;5096202;28;20050;-72
2023/12/23 11:43:47;;;;;;;0.80;0.80;;;8.30;99.90;;;;;;5096174;28;20392;-73
2023/12/23 11:46:17;;;;;;;1.15;1.05;;;8.30;99.90;;;;;;5096155;28;20507;-72
2023/12/23 11:48:43;;;;;;;0.73;0.73;;;8.40;99.90;;;;;;5096630;28;20546;-72
2023/12/23 11:51:12;;;;;;;0.80;0.80;;;8.40;99.90;;;;;;5096751;28;20105;-72
2023/12/23 11:53:40;;;;;;;0.75;0.75;;;8.50;99.90;;;;;;5096564;28;20050;-72
2023/12/23 11:56:06;;;;;;;0.80;0.80;;;8.50;99.90;;;;;;5096469;28;20048;-72
2023/12/23 11:58:32;;;;;;;0.80;0.80;;;8.70;99.90;;;;;;5096446;28;20036;-72
2023/12/23 12:00:59;;;;;;;0.80;0.80;;;9.40;99.90;;;;;;5096229;28;20051;-72
2023/12/23 12:03:25;;;;;;;0.80;0.80;;;8.60;99.90;;;;;;5096773;28;20397;-73
2023/12/23 12:05:58;;;;;;;0.90;0.90;;;8.80;99.90;;;;;;5096172;28;20537;-72
2023/12/23 12:08:24;;;;;;;0.70;0.70;;;8.60;99.90;;;;;;5096222;28;20082;-72
2023/12/23 12:10:51;;;;;;;0.90;0.90;;;8.50;99.90;;;;;;5096308;28;20070;-72
2023/12/23 12:13:17;;;;;;;0.80;0.80;;;8.60;99.90;;;;;;5096053;28;20039;-73
2023/12/23 12:15:42;;;;;;;2.60;2.20;;;9.40;99.90;;;;;;5096188;28;20098;-72
2023/12/23 12:18:10;;;;;;;0.70;0.70;;;8.70;99.90;;;;;;5096155;28;20083;-72
2023/12/23 12:20:36;;;;;;;0.90;0.90;;;9.20;99.90;;;;;;5096355;28;20352;-72
2023/12/23 12:23:02;;;;;;;0.70;0.70;;;8.80;99.90;;;;;;5095001;28;20047;-72
2023/12/23 12:25:31;;;;;;;0.80;0.80;;;8.70;99.90;;;;;;5095986;28;20044;-72
2023/12/23 12:27:58;;;;;;;0.80;0.80;;;8.80;99.90;;;;;;5095574;28;20040;-72
2023/12/23 12:30:23;;;;;;;1.08;1.05;;;8.80;99.90;;;;;;5095932;28;20039;-73
2023/12/23 12:32:51;;;;;;;0.80;0.80;;;8.70;99.90;;;;;;5095859;28;20032;-72
2023/12/23 12:35:17;;;;;;;0.70;0.70;;;8.80;99.90;;;;;;5095878;28;20036;-72
2023/12/23 12:37:43;;;;;;;0.80;0.80;;;8.80;99.90;;;;;;5095792;28;20039;-72
2023/12/23 12:40:13;;;;;;;0.80;0.80;;;8.80;99.90;;;;;;5095572;28;20282;-73
2023/12/23 12:42:45;;;;;;;1.63;1.52;;;9.50;99.90;;;;;;5095645;28;20039;-72
2023/12/23 12:45:11;;;;;;;0.80;0.80;;;9.50;99.90;;;;;;5095690;28;20048;-72
2023/12/23 12:47:37;;;;;;;0.73;0.73;;;9.00;99.90;;;;;;5095904;28;20044;-72
2023/12/23 12:50:04;;;;;;;0.80;0.80;;;9.00;99.90;;;;;;5095169;28;20456;-72
2023/12/23 12:52:30;;;;;;;0.80;0.80;;;9.00;99.90;;;;;;5095383;28;20278;-72